createdAt,value
2018-06-13T00:03:00.000Z,19.4
2018-06-13T00:08:00.000Z,19.5
2018-06-13T00:13:00.000Z,19.5
2018-06-13T00:18:00.000Z,19.4
2018-06-13T00:23:00.000Z,19.4
2018-06-13T00:28:00.000Z,19.3
2018-06-13T00:33:00.000Z,19.2
2018-06-13T00:38:00.000Z,19.2
2018-06-13T00:43:00.000Z,19.2
2018-06-13T00:48:00.000Z,19.3
2018-06-13T00:53:00.000Z,19.2
2018-06-13T00:58:00.000Z,19.3
2018-06-13T01:03:00.000Z,19.2
2018-06-13T01:08:00.000Z,19.2
2018-06-13T01:13:00.000Z,19.2
2018-06-13T01:18:00.000Z,19.2
2018-06-13T01:23:00.000Z,19.2
2018-06-13T01:28:00.000Z,19.2
2018-06-13T01:33:00.000Z,19.2
2018-06-13T01:38:00.000Z,19.2
2018-06-13T01:43:00.000Z,19.0
2018-06-13T01:49:00.000Z,19.0
2018-06-13T01:54:00.000Z,18.9
2018-06-13T01:59:00.000Z,18.9
2018-06-13T02:04:00.000Z,18.9
2018-06-13T02:09:00.000Z,18.9
2018-06-13T02:14:00.000Z,18.9
2018-06-13T02:19:00.000Z,18.8
2018-06-13T02:24:00.000Z,18.8
2018-06-13T02:29:00.000Z,18.8
2018-06-13T02:34:00.000Z,18.7
2018-06-13T02:39:00.000Z,18.7
2018-06-13T02:44:00.000Z,18.7
2018-06-13T02:49:00.000Z,18.7
2018-06-13T02:54:00.000Z,18.7
2018-06-13T02:59:00.000Z,18.7
2018-06-13T03:04:00.000Z,18.7
2018-06-13T03:09:00.000Z,18.7
2018-06-13T03:14:00.000Z,18.6
2018-06-13T03:19:00.000Z,18.6
2018-06-13T03:24:00.000Z,18.6
2018-06-13T03:29:00.000Z,18.6
2018-06-13T03:34:00.000Z,18.7
2018-06-13T03:39:00.000Z,18.7
2018-06-13T03:44:00.000Z,18.8
2018-06-13T03:49:00.000Z,18.9
2018-06-13T03:54:00.000Z,19.0
2018-06-13T03:59:00.000Z,19.1
2018-06-13T04:04:00.000Z,19.2
2018-06-13T04:09:00.000Z,19.3
2018-06-13T04:14:00.000Z,19.4
2018-06-13T04:19:00.000Z,19.4
2018-06-13T04:24:00.000Z,19.5
2018-06-13T04:29:00.000Z,19.4
2018-06-13T04:34:00.000Z,19.3
2018-06-13T04:39:00.000Z,19.2
2018-06-13T04:44:00.000Z,19.1
2018-06-13T04:49:00.000Z,19.0
2018-06-13T04:54:00.000Z,19.1
2018-06-13T04:59:00.000Z,19.2
2018-06-13T05:04:00.000Z,19.2
2018-06-13T05:09:00.000Z,19.3
2018-06-13T05:14:00.000Z,19.4
2018-06-13T05:19:00.000Z,19.5
2018-06-13T05:24:00.000Z,19.6
2018-06-13T05:29:00.000Z,19.5
2018-06-13T05:34:00.000Z,19.4
2018-06-13T05:39:00.000Z,19.5
2018-06-13T05:44:00.000Z,19.5
2018-06-13T05:49:00.000Z,19.6
2018-06-13T05:54:00.000Z,19.8
2018-06-13T05:59:00.000Z,19.9
2018-06-13T06:04:00.000Z,20.0
2018-06-13T06:09:00.000Z,20.2
2018-06-13T06:14:00.000Z,20.4
2018-06-13T06:19:00.000Z,20.7
2018-06-13T06:24:00.000Z,20.9
2018-06-13T06:29:00.000Z,21.0
2018-06-13T06:34:00.000Z,21.3
2018-06-13T06:39:00.000Z,21.7
2018-06-13T06:44:00.000Z,22.2
2018-06-13T06:49:00.000Z,22.7
2018-06-13T06:54:00.000Z,22.9
2018-06-13T06:59:00.000Z,23.2
2018-06-13T07:04:00.000Z,23.5
2018-06-13T07:09:00.000Z,24.2
2018-06-13T07:14:00.000Z,24.6
2018-06-13T07:19:00.000Z,25.3
2018-06-13T07:24:00.000Z,25.8
2018-06-13T07:29:00.000Z,26.4
2018-06-13T07:34:00.000Z,26.8
2018-06-13T07:39:00.000Z,26.9
2018-06-13T07:45:00.000Z,27.0
2018-06-13T07:50:00.000Z,27.4
2018-06-13T07:55:00.000Z,28.0
2018-06-13T08:00:00.000Z,28.5
2018-06-13T08:05:00.000Z,28.9
2018-06-13T08:10:00.000Z,29.3
2018-06-13T08:15:00.000Z,28.8
2018-06-13T08:20:00.000Z,27.7
2018-06-13T08:25:00.000Z,26.7
2018-06-13T08:30:00.000Z,25.9
2018-06-13T08:35:00.000Z,25.5
2018-06-13T08:40:00.000Z,25.5
2018-06-13T08:45:00.000Z,25.2
2018-06-13T08:50:00.000Z,24.7
2018-06-13T08:55:00.000Z,24.3
2018-06-13T09:00:00.000Z,24.0
2018-06-13T09:05:00.000Z,23.7
2018-06-13T09:10:00.000Z,23.2
2018-06-13T09:15:00.000Z,22.8
2018-06-13T09:20:00.000Z,22.4
2018-06-13T09:25:00.000Z,22.1
2018-06-13T09:30:00.000Z,22.0
2018-06-13T09:35:00.000Z,21.8
2018-06-13T09:40:00.000Z,21.7
2018-06-13T09:45:00.000Z,21.7
2018-06-13T09:50:00.000Z,21.7
2018-06-13T09:55:00.000Z,21.9
2018-06-13T10:00:00.000Z,22.0
2018-06-13T10:05:00.000Z,22.3
2018-06-13T10:10:00.000Z,22.9
2018-06-13T10:15:00.000Z,23.8
2018-06-13T10:20:00.000Z,24.6
2018-06-13T10:25:00.000Z,25.4
2018-06-13T10:30:00.000Z,25.9
2018-06-13T10:35:00.000Z,26.3
2018-06-13T10:40:00.000Z,26.4
2018-06-13T10:45:00.000Z,26.6
2018-06-13T10:50:00.000Z,27.0
2018-06-13T10:55:00.000Z,27.0
2018-06-13T11:00:00.000Z,27.1
2018-06-13T11:05:00.000Z,27.4
2018-06-13T11:10:00.000Z,27.4
2018-06-13T11:15:00.000Z,27.4
2018-06-13T11:20:00.000Z,27.2
2018-06-13T11:25:00.000Z,26.8
2018-06-13T11:30:00.000Z,26.5
2018-06-13T11:35:00.000Z,26.0
2018-06-13T11:40:00.000Z,25.7
2018-06-13T11:45:00.000Z,25.4
2018-06-13T11:50:00.000Z,25.1
2018-06-13T11:55:00.000Z,24.7
2018-06-13T12:00:00.000Z,24.5
2018-06-13T12:05:00.000Z,24.4
2018-06-13T12:10:00.000Z,24.2
2018-06-13T12:15:00.000Z,24.1
2018-06-13T12:20:00.000Z,24.1
2018-06-13T12:25:00.000Z,24.2
2018-06-13T12:30:00.000Z,24.3
2018-06-13T12:35:00.000Z,24.4
2018-06-13T12:40:00.000Z,24.5
2018-06-13T12:45:00.000Z,24.5
2018-06-13T12:50:00.000Z,24.4
2018-06-13T12:55:00.000Z,24.3
2018-06-13T13:00:00.000Z,24.4
2018-06-13T13:05:00.000Z,24.5
2018-06-13T13:10:00.000Z,24.7
2018-06-13T13:15:00.000Z,24.8
2018-06-13T13:20:00.000Z,24.6
2018-06-13T13:25:00.000Z,24.2
2018-06-13T13:30:00.000Z,23.9
2018-06-13T13:35:00.000Z,23.7
2018-06-13T13:40:00.000Z,23.5
2018-06-13T13:45:00.000Z,23.4
2018-06-13T13:50:00.000Z,23.4
2018-06-13T13:56:00.000Z,23.3
2018-06-13T14:01:00.000Z,23.3
2018-06-13T14:06:00.000Z,23.4
2018-06-13T14:11:00.000Z,23.5
2018-06-13T14:16:00.000Z,23.5
2018-06-13T14:21:00.000Z,23.5
2018-06-13T14:26:00.000Z,23.3
2018-06-13T14:31:00.000Z,23.2
2018-06-13T14:36:00.000Z,23.1
2018-06-13T14:41:00.000Z,22.9
2018-06-13T14:46:00.000Z,22.7
2018-06-13T14:51:00.000Z,22.6
2018-06-13T14:56:00.000Z,22.5
2018-06-13T15:01:00.000Z,22.4
2018-06-13T15:06:00.000Z,22.2
2018-06-13T15:11:00.000Z,22.2
2018-06-13T15:16:00.000Z,22.2
2018-06-13T15:21:00.000Z,22.2
2018-06-13T15:26:00.000Z,22.1
2018-06-13T15:31:00.000Z,22.1
2018-06-13T15:36:00.000Z,22.0
2018-06-13T15:41:00.000Z,21.9
2018-06-13T15:46:00.000Z,21.7
2018-06-13T15:51:00.000Z,21.6
2018-06-13T15:56:00.000Z,21.5
2018-06-13T16:01:00.000Z,21.5
2018-06-13T16:06:00.000Z,21.5
2018-06-13T16:11:00.000Z,21.5
2018-06-13T16:16:00.000Z,21.5
2018-06-13T16:21:00.000Z,21.5
2018-06-13T16:26:00.000Z,21.4
2018-06-13T16:31:00.000Z,21.4
2018-06-13T16:36:00.000Z,21.3
2018-06-13T16:41:00.000Z,21.3
2018-06-13T16:46:00.000Z,21.2
2018-06-13T16:51:00.000Z,21.2
2018-06-13T16:56:00.000Z,21.1
2018-06-13T17:01:00.000Z,21.1
2018-06-13T17:06:00.000Z,21.0
2018-06-13T17:11:00.000Z,21.0
2018-06-13T17:16:00.000Z,21.0
2018-06-13T17:21:00.000Z,20.9
2018-06-13T17:26:00.000Z,20.9
2018-06-13T17:31:00.000Z,20.8
2018-06-13T17:36:00.000Z,20.7
2018-06-13T17:41:00.000Z,20.6
2018-06-13T17:46:00.000Z,20.5
2018-06-13T17:51:00.000Z,20.3
2018-06-13T17:56:00.000Z,20.1
2018-06-13T18:01:00.000Z,20.0
2018-06-13T18:06:00.000Z,19.9
2018-06-13T18:11:00.000Z,19.8
2018-06-13T18:16:00.000Z,19.8
2018-06-13T18:21:00.000Z,19.8
2018-06-13T18:26:00.000Z,19.7
2018-06-13T18:31:00.000Z,19.6
2018-06-13T18:36:00.000Z,19.6
2018-06-13T18:41:00.000Z,19.6
2018-06-13T18:46:00.000Z,19.5
2018-06-13T18:51:00.000Z,19.4
2018-06-13T18:56:00.000Z,19.4
2018-06-13T19:01:00.000Z,19.3
2018-06-13T19:06:00.000Z,19.3
2018-06-13T19:11:00.000Z,19.2
2018-06-13T19:16:00.000Z,19.1
2018-06-13T19:21:00.000Z,19.1
2018-06-13T19:26:00.000Z,19.0
2018-06-13T19:32:00.000Z,18.9
2018-06-13T19:37:00.000Z,18.8
2018-06-13T19:42:00.000Z,18.7
2018-06-13T19:47:00.000Z,18.7
2018-06-13T19:52:00.000Z,18.6
2018-06-13T19:57:00.000Z,18.5
2018-06-13T20:02:00.000Z,18.4
2018-06-13T20:07:00.000Z,18.3
2018-06-13T20:12:00.000Z,18.3
2018-06-13T20:17:00.000Z,18.3
2018-06-13T20:22:00.000Z,18.3
2018-06-13T20:27:00.000Z,18.3
2018-06-13T20:32:00.000Z,18.2
2018-06-13T20:37:00.000Z,18.2
2018-06-13T20:42:00.000Z,18.1
2018-06-13T20:47:00.000Z,18.1
2018-06-13T20:52:00.000Z,18.0
2018-06-13T20:57:00.000Z,18.0
2018-06-13T21:02:00.000Z,18.0
2018-06-13T21:07:00.000Z,18.0
2018-06-13T21:12:00.000Z,18.0
2018-06-13T21:17:00.000Z,18.0
2018-06-13T21:22:00.000Z,18.0
2018-06-13T21:27:00.000Z,18.0
2018-06-13T21:32:00.000Z,17.9
2018-06-13T21:37:00.000Z,17.9
2018-06-13T21:42:00.000Z,17.9
2018-06-13T21:47:00.000Z,17.8
2018-06-13T21:52:00.000Z,17.9
2018-06-13T21:57:00.000Z,17.8
2018-06-13T22:02:00.000Z,17.7
2018-06-13T22:07:00.000Z,17.7
2018-06-13T22:12:00.000Z,17.7
2018-06-13T22:17:00.000Z,17.7
2018-06-13T22:22:00.000Z,17.6
2018-06-13T22:27:00.000Z,17.6
2018-06-13T22:32:00.000Z,17.5
2018-06-13T22:37:00.000Z,17.4
2018-06-13T22:42:00.000Z,17.4
2018-06-13T22:47:00.000Z,17.3
2018-06-13T22:52:00.000Z,17.3
2018-06-13T22:57:00.000Z,17.3
2018-06-13T23:02:00.000Z,17.2
2018-06-13T23:07:00.000Z,17.2
2018-06-13T23:12:00.000Z,17.2
2018-06-13T23:17:00.000Z,17.1
2018-06-13T23:22:00.000Z,17.0
2018-06-13T23:27:00.000Z,17.0
2018-06-13T23:32:00.000Z,16.9
2018-06-13T23:37:00.000Z,16.8
2018-06-13T23:42:00.000Z,16.8
2018-06-13T23:47:00.000Z,16.8
2018-06-13T23:52:00.000Z,16.7
2018-06-13T23:57:00.000Z,16.7
